sensor_id;sensor_type;location;lat;lon;timestamp;pressure;altitude;pressure_sealevel;temperature;humidity
25430;BME280;13360;48.152;-1.788;2023-04-25T00:01:53;101359.53;;;12.37;100.00
25430;BME280;13360;48.152;-1.788;2023-04-25T00:04:18;101357.06;;;12.35;100.00
25430;BME280;13360;48.152;-1.788;2023-04-25T00:06:43;101363.72;;;12.34;100.00
25430;BME280;13360;48.152;-1.788;2023-04-25T00:09:08;101356.28;;;12.30;100.00
25430;BME280;13360;48.152;-1.788;2023-04-25T00:11:35;101361.84;;;12.30;100.00
25430;BME280;13360;48.152;-1.788;2023-04-25T00:14:00;101359.63;;;12.27;100.00
25430;BME280;13360;48.152;-1.788;2023-04-25T00:16:28;101362.38;;;12.27;100.00
25430;BME280;13360;48.152;-1.788;2023-04-25T00:18:54;101348.84;;;12.25;100.00
25430;BME280;13360;48.152;-1.788;2023-04-25T00:21:19;101353.56;;;12.25;100.00
25430;BME280;13360;48.152;-1.788;2023-04-25T00:23:45;101357.97;;;12.26;100.00
25430;BME280;13360;48.152;-1.788;2023-04-25T00:26:11;101344.72;;;12.23;100.00
25430;BME280;13360;48.152;-1.788;2023-04-25T00:28:36;101346.13;;;12.20;100.00
25430;BME280;13360;48.152;-1.788;2023-04-25T00:31:02;101337.28;;;12.18;100.00
25430;BME280;13360;48.152;-1.788;2023-04-25T00:33:27;101341.19;;;12.17;100.00
25430;BME280;13360;48.152;-1.788;2023-04-25T00:35:52;101346.72;;;12.17;100.00
25430;BME280;13360;48.152;-1.788;2023-04-25T00:38:18;101347.00;;;12.15;100.00
25430;BME280;13360;48.152;-1.788;2023-04-25T00:40:43;101346.47;;;12.13;100.00
25430;BME280;13360;48.152;-1.788;2023-04-25T00:43:08;101349.53;;;12.12;100.00
25430;BME280;13360;48.152;-1.788;2023-04-25T00:45:33;101351.50;;;12.11;100.00
25430;BME280;13360;48.152;-1.788;2023-04-25T00:48:02;101352.59;;;12.10;100.00
25430;BME280;13360;48.152;-1.788;2023-04-25T00:50:29;101361.22;;;12.09;100.00
25430;BME280;13360;48.152;-1.788;2023-04-25T00:52:55;101355.09;;;12.07;100.00
25430;BME280;13360;48.152;-1.788;2023-04-25T00:55:20;101347.41;;;12.04;100.00
25430;BME280;13360;48.152;-1.788;2023-04-25T00:57:45;101352.09;;;12.03;100.00
25430;BME280;13360;48.152;-1.788;2023-04-25T01:00:11;101334.44;;;11.99;100.00
25430;BME280;13360;48.152;-1.788;2023-04-25T01:02:39;101333.06;;;11.97;100.00
25430;BME280;13360;48.152;-1.788;2023-04-25T01:05:05;101335.59;;;11.93;100.00
25430;BME280;13360;48.152;-1.788;2023-04-25T01:07:30;101333.13;;;11.92;100.00
25430;BME280;13360;48.152;-1.788;2023-04-25T01:09:55;101337.00;;;11.90;100.00
25430;BME280;13360;48.152;-1.788;2023-04-25T01:12:21;101342.31;;;11.87;100.00
25430;BME280;13360;48.152;-1.788;2023-04-25T01:14:46;101331.78;;;11.84;100.00
25430;BME280;13360;48.152;-1.788;2023-04-25T01:17:12;101331.78;;;11.84;100.00
25430;BME280;13360;48.152;-1.788;2023-04-25T01:19:37;101319.09;;;11.78;100.00
25430;BME280;13360;48.152;-1.788;2023-04-25T01:22:02;101318.56;;;11.76;100.00
25430;BME280;13360;48.152;-1.788;2023-04-25T01:24:28;101321.63;;;11.74;100.00
25430;BME280;13360;48.152;-1.788;2023-04-25T01:26:54;101309.19;;;11.72;100.00
25430;BME280;13360;48.152;-1.788;2023-04-25T01:29:21;101310.06;;;11.67;100.00
25430;BME280;13360;48.152;-1.788;2023-04-25T01:31:47;101310.34;;;11.66;100.00
25430;BME280;13360;48.152;-1.788;2023-04-25T01:34:12;101309.28;;;11.61;100.00
25430;BME280;13360;48.152;-1.788;2023-04-25T01:36:38;101299.91;;;11.57;100.00
25430;BME280;13360;48.152;-1.788;2023-04-25T01:39:03;101305.72;;;11.56;100.00
25430;BME280;13360;48.152;-1.788;2023-04-25T01:41:28;101297.72;;;11.54;100.00
25430;BME280;13360;48.152;-1.788;2023-04-25T01:43:54;101292.78;;;11.51;100.00
25430;BME280;13360;48.152;-1.788;2023-04-25T01:46:19;101296.13;;;11.48;100.00
25430;BME280;13360;48.152;-1.788;2023-04-25T01:48:44;101284.53;;;11.46;100.00
25430;BME280;13360;48.152;-1.788;2023-04-25T01:51:10;101280.66;;;11.42;100.00
25430;BME280;13360;48.152;-1.788;2023-04-25T01:53:36;101278.72;;;11.43;100.00
25430;BME280;13360;48.152;-1.788;2023-04-25T01:56:01;101283.97;;;11.44;100.00
25430;BME280;13360;48.152;-1.788;2023-04-25T01:58:27;101280.66;;;11.42;100.00
25430;BME280;13360;48.152;-1.788;2023-04-25T02:00:52;101280.13;;;11.40;100.00
25430;BME280;13360;48.152;-1.788;2023-04-25T02:03:17;101277.94;;;11.37;100.00
25430;BME280;13360;48.152;-1.788;2023-04-25T02:05:42;101284.59;;;11.36;100.00
25430;BME280;13360;48.152;-1.788;2023-04-25T02:08:08;101277.69;;;11.34;100.00
25430;BME280;13360;48.152;-1.788;2023-04-25T02:10:34;101275.22;;;11.32;100.00
25430;BME280;13360;48.152;-1.788;2023-04-25T02:12:59;101275.22;;;11.32;100.00
25430;BME280;13360;48.152;-1.788;2023-04-25T02:15:24;101274.97;;;11.28;100.00
25430;BME280;13360;48.152;-1.788;2023-04-25T02:17:50;101276.69;;;11.24;100.00
25430;BME280;13360;48.152;-1.788;2023-04-25T02:20:17;101277.22;;;11.21;100.00
25430;BME280;13360;48.152;-1.788;2023-04-25T02:22:42;101278.09;;;11.17;100.00
25430;BME280;13360;48.152;-1.788;2023-04-25T02:25:08;101284.75;;;11.16;100.00
25430;BME280;13360;48.152;-1.788;2023-04-25T02:27:34;101291.38;;;11.15;100.00
25430;BME280;13360;48.152;-1.788;2023-04-25T02:29:59;101289.19;;;11.12;100.00
25430;BME280;13360;48.152;-1.788;2023-04-25T02:32:24;101285.63;;;11.11;100.00
25430;BME280;13360;48.152;-1.788;2023-04-25T02:34:49;101305.78;;;11.12;100.00
25430;BME280;13360;48.152;-1.788;2023-04-25T02:37:15;101291.97;;;11.12;100.00
25430;BME280;13360;48.152;-1.788;2023-04-25T02:39:40;101285.38;;;11.08;100.00
25430;BME280;13360;48.152;-1.788;2023-04-25T02:42:06;101272.13;;;11.05;100.00
25430;BME280;13360;48.152;-1.788;2023-04-25T02:44:31;101283.19;;;10.99;100.00
25430;BME280;13360;48.152;-1.788;2023-04-25T02:46:56;101305.84;;;11.02;100.00
25430;BME280;13360;48.152;-1.788;2023-04-25T02:49:21;101303.91;;;11.02;100.00
25430;BME280;13360;48.152;-1.788;2023-04-25T02:51:47;101300.31;;;11.02;100.00
25430;BME280;13360;48.152;-1.788;2023-04-25T02:54:12;101300.88;;;10.98;100.00
25430;BME280;13360;48.152;-1.788;2023-04-25T02:56:37;101297.88;;;10.95;100.00
25430;BME280;13360;48.152;-1.788;2023-04-25T02:59:02;101294.56;;;10.93;100.00
25430;BME280;13360;48.152;-1.788;2023-04-25T03:01:28;101295.72;;;10.87;100.00
25430;BME280;13360;48.152;-1.788;2023-04-25T03:03:53;101314.25;;;10.86;100.00
25430;BME280;13360;48.152;-1.788;2023-04-25T03:06:18;101319.75;;;10.86;100.00
25430;BME280;13360;48.152;-1.788;2023-04-25T03:08:43;101325.28;;;10.86;100.00
25430;BME280;13360;48.152;-1.788;2023-04-25T03:11:09;101326.13;;;10.87;100.00
25430;BME280;13360;48.152;-1.788;2023-04-25T03:13:34;101328.06;;;10.86;100.00
25430;BME280;13360;48.152;-1.788;2023-04-25T03:15:59;101329.16;;;10.85;100.00
25430;BME280;13360;48.152;-1.788;2023-04-25T03:18:25;101313.41;;;10.81;100.00
25430;BME280;13360;48.152;-1.788;2023-04-25T03:20:50;101326.94;;;10.82;100.00
25430;BME280;13360;48.152;-1.788;2023-04-25T03:23:15;101320.06;;;10.85;100.00
25430;BME280;13360;48.152;-1.788;2023-04-25T03:25:40;101335.25;;;10.82;100.00
25430;BME280;13360;48.152;-1.788;2023-04-25T03:28:06;101335.81;;;10.79;100.00
25430;BME280;13360;48.152;-1.788;2023-04-25T03:30:31;101334.16;;;10.78;100.00
25430;BME280;13360;48.152;-1.788;2023-04-25T03:32:56;101337.78;;;10.74;100.00
25430;BME280;13360;48.152;-1.788;2023-04-25T03:35:21;101340.00;;;10.72;100.00
25430;BME280;13360;48.152;-1.788;2023-04-25T03:37:48;101348.28;;;10.72;100.00
25430;BME280;13360;48.152;-1.788;2023-04-25T03:40:14;101363.22;;;10.71;100.00
25430;BME280;13360;48.152;-1.788;2023-04-25T03:42:39;101376.22;;;10.70;100.00
25430;BME280;13360;48.152;-1.788;2023-04-25T03:45:04;101380.34;;;10.73;100.00
25430;BME280;13360;48.152;-1.788;2023-04-25T03:47:30;101383.94;;;10.73;100.00
25430;BME280;13360;48.152;-1.788;2023-04-25T03:49:55;101393.31;;;10.72;100.00
25430;BME280;13360;48.152;-1.788;2023-04-25T03:52:20;101394.97;;;10.73;100.00
25430;BME280;13360;48.152;-1.788;2023-04-25T03:54:45;101402.44;;;10.73;100.00
25430;BME280;13360;48.152;-1.788;2023-04-25T03:57:11;101405.19;;;10.73;100.00
25430;BME280;13360;48.152;-1.788;2023-04-25T03:59:36;101404.91;;;10.74;100.00
25430;BME280;13360;48.152;-1.788;2023-04-25T04:02:01;101410.44;;;10.74;100.00
25430;BME280;13360;48.152;-1.788;2023-04-25T04:04:26;101419.03;;;10.73;100.00
25430;BME280;13360;48.152;-1.788;2023-04-25T04:06:52;101414.63;;;10.66;100.00
25430;BME280;13360;48.152;-1.788;2023-04-25T04:09:17;101422.63;;;10.68;100.00
25430;BME280;13360;48.152;-1.788;2023-04-25T04:11:43;101435.34;;;10.69;100.00
25430;BME280;13360;48.152;-1.788;2023-04-25T04:14:08;101439.75;;;10.70;100.00
25430;BME280;13360;48.152;-1.788;2023-04-25T04:16:34;101446.09;;;10.71;100.00
25430;BME280;13360;48.152;-1.788;2023-04-25T04:19:00;101454.69;;;10.69;100.00
25430;BME280;13360;48.152;-1.788;2023-04-25T04:21:25;101454.69;;;10.69;100.00
25430;BME280;13360;48.152;-1.788;2023-04-25T04:23:52;101452.19;;;10.67;100.00
25430;BME280;13360;48.152;-1.788;2023-04-25T04:26:17;101463.53;;;10.66;100.00
25430;BME280;13360;48.152;-1.788;2023-04-25T04:28:43;101463.81;;;10.64;100.00
25430;BME280;13360;48.152;-1.788;2023-04-25T04:31:09;101476.78;;;10.59;100.00
25430;BME280;13360;48.152;-1.788;2023-04-25T04:33:35;101480.66;;;10.58;100.00
25430;BME280;13360;48.152;-1.788;2023-04-25T04:36:00;101475.66;;;10.60;100.00
25430;BME280;13360;48.152;-1.788;2023-04-25T04:38:25;101482.84;;;10.61;100.00
25430;BME280;13360;48.152;-1.788;2023-04-25T04:40:51;101485.91;;;10.64;100.00
25430;BME280;13360;48.152;-1.788;2023-04-25T04:43:17;101488.38;;;10.66;100.00
25430;BME280;13360;48.152;-1.788;2023-04-25T04:45:43;101495.59;;;10.62;100.00
25430;BME280;13360;48.152;-1.788;2023-04-25T04:48:09;101494.72;;;10.61;100.00
25430;BME280;13360;48.152;-1.788;2023-04-25T04:50:36;101501.94;;;10.62;100.00
25430;BME280;13360;48.152;-1.788;2023-04-25T04:53:02;101505.53;;;10.63;100.00
25430;BME280;13360;48.152;-1.788;2023-04-25T04:55:27;101507.44;;;10.57;100.00
25430;BME280;13360;48.152;-1.788;2023-04-25T04:57:52;101521.53;;;10.56;100.00
25430;BME280;13360;48.152;-1.788;2023-04-25T05:00:18;101530.09;;;10.59;100.00
25430;BME280;13360;48.152;-1.788;2023-04-25T05:02:43;101530.66;;;10.61;100.00
25430;BME280;13360;48.152;-1.788;2023-04-25T05:05:08;101536.16;;;10.61;100.00
25430;BME280;13360;48.152;-1.788;2023-04-25T05:07:34;101535.91;;;10.58;100.00
25430;BME280;13360;48.152;-1.788;2023-04-25T05:09:59;101539.78;;;10.57;100.00
25430;BME280;13360;48.152;-1.788;2023-04-25T05:12:25;101539.50;;;10.53;100.00
25430;BME280;13360;48.152;-1.788;2023-04-25T05:14:50;101540.88;;;10.51;100.00
25430;BME280;13360;48.152;-1.788;2023-04-25T05:17:15;101546.41;;;10.51;100.00
25430;BME280;13360;48.152;-1.788;2023-04-25T05:19:40;101542.28;;;10.48;100.00
25430;BME280;13360;48.152;-1.788;2023-04-25T05:22:06;101544.22;;;10.48;100.00
25430;BME280;13360;48.152;-1.788;2023-04-25T05:24:31;101551.66;;;10.47;100.00
25430;BME280;13360;48.152;-1.788;2023-04-25T05:26:56;101559.13;;;10.47;100.00
25430;BME280;13360;48.152;-1.788;2023-04-25T05:29:21;101563.00;;;10.46;100.00
25430;BME280;13360;48.152;-1.788;2023-04-25T05:31:47;101572.09;;;10.46;100.00
25430;BME280;13360;48.152;-1.788;2023-04-25T05:34:13;101578.47;;;10.47;100.00
25430;BME280;13360;48.152;-1.788;2023-04-25T05:36:38;101560.50;;;10.49;100.00
25430;BME280;13360;48.152;-1.788;2023-04-25T05:39:03;101578.44;;;10.52;100.00
25430;BME280;13360;48.152;-1.788;2023-04-25T05:41:29;101579.28;;;10.52;100.00
25430;BME280;13360;48.152;-1.788;2023-04-25T05:43:54;101590.06;;;10.54;100.00
25430;BME280;13360;48.152;-1.788;2023-04-25T05:46:20;101593.66;;;10.54;100.00
25430;BME280;13360;48.152;-1.788;2023-04-25T05:48:45;101594.75;;;10.53;100.00
25430;BME280;13360;48.152;-1.788;2023-04-25T05:51:10;101583.16;;;10.51;100.00
25430;BME280;13360;48.152;-1.788;2023-04-25T05:53:36;101598.63;;;10.52;100.00
25430;BME280;13360;48.152;-1.788;2023-04-25T05:56:01;101601.09;;;10.54;100.00
25430;BME280;13360;48.152;-1.788;2023-04-25T05:58:26;101598.06;;;10.55;100.00
25430;BME280;13360;48.152;-1.788;2023-04-25T06:00:51;101609.94;;;10.56;100.00
25430;BME280;13360;48.152;-1.788;2023-04-25T06:03:17;101613.53;;;10.56;100.00
25430;BME280;13360;48.152;-1.788;2023-04-25T06:05:42;101621.00;;;10.56;100.00
25430;BME280;13360;48.152;-1.788;2023-04-25T06:08:08;101623.19;;;10.59;100.00
25430;BME280;13360;48.152;-1.788;2023-04-25T06:10:33;101615.72;;;10.59;100.00
25430;BME280;13360;48.152;-1.788;2023-04-25T06:12:58;101616.56;;;10.60;100.00
25430;BME280;13360;48.152;-1.788;2023-04-25T06:15:23;101626.50;;;10.61;100.00
25430;BME280;13360;48.152;-1.788;2023-04-25T06:17:49;101630.97;;;10.62;100.00
25430;BME280;13360;48.152;-1.788;2023-04-25T06:20:14;101642.56;;;10.64;100.00
25430;BME280;13360;48.152;-1.788;2023-04-25T06:22:39;101658.88;;;10.65;100.00
25430;BME280;13360;48.152;-1.788;2023-04-25T06:25:05;101664.66;;;10.69;100.00
25430;BME280;13360;48.152;-1.788;2023-04-25T06:27:32;101680.69;;;10.72;100.00
25430;BME280;13360;48.152;-1.788;2023-04-25T06:29:57;101680.69;;;10.72;100.00
25430;BME280;13360;48.152;-1.788;2023-04-25T06:32:22;101693.13;;;10.75;100.00
25430;BME280;13360;48.152;-1.788;2023-04-25T06:34:47;101704.72;;;10.77;100.00
25430;BME280;13360;48.152;-1.788;2023-04-25T06:37:12;101712.47;;;10.80;100.00
25430;BME280;13360;48.152;-1.788;2023-04-25T06:39:38;101733.78;;;10.84;100.00
25430;BME280;13360;48.152;-1.788;2023-04-25T06:42:03;101766.38;;;10.87;100.00
25430;BME280;13360;48.152;-1.788;2023-04-25T06:44:28;101786.28;;;10.89;100.00
25430;BME280;13360;48.152;-1.788;2023-04-25T06:46:54;101825.00;;;10.94;100.00
25430;BME280;13360;48.152;-1.788;2023-04-25T06:49:20;101840.75;;;10.99;100.00
25430;BME280;13360;48.152;-1.788;2023-04-25T06:51:45;101862.31;;;11.02;100.00
25430;BME280;13360;48.152;-1.788;2023-04-25T06:54:10;101884.75;;;11.06;100.00
25430;BME280;13360;48.152;-1.788;2023-04-25T06:56:35;101907.16;;;11.09;100.00
25430;BME280;13360;48.152;-1.788;2023-04-25T06:59:01;101914.06;;;11.17;100.00
25430;BME280;13360;48.152;-1.788;2023-04-25T07:01:26;101936.75;;;11.24;100.00
25430;BME280;13360;48.152;-1.788;2023-04-25T07:03:51;101958.38;;;11.27;100.00
25430;BME280;13360;48.152;-1.788;2023-04-25T07:06:17;101981.59;;;11.26;100.00
25430;BME280;13360;48.152;-1.788;2023-04-25T07:08:42;102003.75;;;11.31;100.00
25430;BME280;13360;48.152;-1.788;2023-04-25T07:11:07;102009.28;;;11.31;100.00
25430;BME280;13360;48.152;-1.788;2023-04-25T07:13:33;102026.44;;;11.33;100.00
25430;BME280;13360;48.152;-1.788;2023-04-25T07:15:58;102049.41;;;11.44;100.00
25430;BME280;13360;48.152;-1.788;2023-04-25T07:18:24;102066.06;;;11.54;100.00
25430;BME280;13360;48.152;-1.788;2023-04-25T07:20:49;102088.28;;;11.69;100.00
25430;BME280;13360;48.152;-1.788;2023-04-25T07:23:14;102107.94;;;11.78;100.00
25430;BME280;13360;48.152;-1.788;2023-04-25T07:25:40;102121.81;;;11.83;100.00
25430;BME280;13360;48.152;-1.788;2023-04-25T07:28:05;102130.69;;;11.85;100.00
25430;BME280;13360;48.152;-1.788;2023-04-25T07:30:30;102160.03;;;11.86;100.00
25430;BME280;13360;48.152;-1.788;2023-04-25T07:32:56;102154.44;;;11.76;100.00
25430;BME280;13360;48.152;-1.788;2023-04-25T07:35:21;102165.03;;;11.84;100.00
25430;BME280;13360;48.152;-1.788;2023-04-25T07:37:46;102168.94;;;11.88;100.00
25430;BME280;13360;48.152;-1.788;2023-04-25T07:40:11;102171.66;;;11.83;100.00
25430;BME280;13360;48.152;-1.788;2023-04-25T07:42:37;102184.97;;;11.86;100.00
25430;BME280;13360;48.152;-1.788;2023-04-25T07:45:02;102204.13;;;11.93;100.00
25430;BME280;13360;48.152;-1.788;2023-04-25T07:47:28;102201.94;;;12.05;100.00
25430;BME280;13360;48.152;-1.788;2023-04-25T07:49:53;102221.09;;;12.16;100.00
25430;BME280;13360;48.152;-1.788;2023-04-25T07:52:19;102221.38;;;12.15;100.00
25430;BME280;13360;48.152;-1.788;2023-04-25T07:54:44;102199.50;;;12.13;100.00
25430;BME280;13360;48.152;-1.788;2023-04-25T07:57:10;102205.03;;;12.18;100.00
25430;BME280;13360;48.152;-1.788;2023-04-25T07:59:35;102213.41;;;12.29;100.00
25430;BME280;13360;48.152;-1.788;2023-04-25T08:02:01;102214.25;;;12.39;100.00
25430;BME280;13360;48.152;-1.788;2023-04-25T08:04:26;102227.03;;;12.50;100.00
25430;BME280;13360;48.152;-1.788;2023-04-25T08:06:51;102196.50;;;12.45;100.00
25430;BME280;13360;48.152;-1.788;2023-04-25T08:09:20;102161.88;;;12.38;100.00
25430;BME280;13360;48.152;-1.788;2023-04-25T08:11:45;102131.13;;;12.34;100.00
25430;BME280;13360;48.152;-1.788;2023-04-25T08:14:11;102119.19;;;12.39;100.00
25430;BME280;13360;48.152;-1.788;2023-04-25T08:16:36;102105.34;;;12.29;100.00
25430;BME280;13360;48.152;-1.788;2023-04-25T08:19:02;102124.75;;;12.39;100.00
25430;BME280;13360;48.152;-1.788;2023-04-25T08:21:27;102134.16;;;12.48;100.00
25430;BME280;13360;48.152;-1.788;2023-04-25T08:23:52;102113.09;;;12.62;100.00
25430;BME280;13360;48.152;-1.788;2023-04-25T08:26:18;102109.22;;;12.78;100.00
25430;BME280;13360;48.152;-1.788;2023-04-25T08:28:43;102116.69;;;12.98;100.00
25430;BME280;13360;48.152;-1.788;2023-04-25T08:31:08;102087.00;;;13.04;100.00
25430;BME280;13360;48.152;-1.788;2023-04-25T08:33:33;102057.66;;;12.93;100.00
25430;BME280;13360;48.152;-1.788;2023-04-25T08:35:59;102009.41;;;12.83;100.00
25430;BME280;13360;48.152;-1.788;2023-04-25T08:38:24;101998.84;;;12.96;100.00
25430;BME280;13360;48.152;-1.788;2023-04-25T08:40:50;101969.44;;;12.90;100.00
25430;BME280;13360;48.152;-1.788;2023-04-25T08:43:17;101959.69;;;13.02;100.00
25430;BME280;13360;48.152;-1.788;2023-04-25T08:45:42;101949.72;;;13.01;100.00
25430;BME280;13360;48.152;-1.788;2023-04-25T08:48:15;101914.44;;;13.17;100.00
25430;BME280;13360;48.152;-1.788;2023-04-25T08:50:45;101924.47;;;13.57;100.00
25430;BME280;13360;48.152;-1.788;2023-04-25T08:53:14;101905.75;;;13.73;100.00
25430;BME280;13360;48.152;-1.788;2023-04-25T08:55:45;101887.53;;;13.62;100.00
25430;BME280;13360;48.152;-1.788;2023-04-25T08:58:10;101842.78;;;13.34;100.00
25430;BME280;13360;48.152;-1.788;2023-04-25T09:00:36;101831.63;;;13.39;100.00
25430;BME280;13360;48.152;-1.788;2023-04-25T09:03:01;101820.19;;;13.46;100.00
25430;BME280;13360;48.152;-1.788;2023-04-25T09:05:28;101807.66;;;13.54;100.00
25430;BME280;13360;48.152;-1.788;2023-04-25T09:07:53;101837.75;;;13.99;100.00
25430;BME280;13360;48.152;-1.788;2023-04-25T09:10:19;101821.50;;;14.35;100.00
25430;BME280;13360;48.152;-1.788;2023-04-25T09:12:44;101750.00;;;13.98;100.00
25430;BME280;13360;48.152;-1.788;2023-04-25T09:15:10;101731.97;;;13.96;100.00
25430;BME280;13360;48.152;-1.788;2023-04-25T09:17:35;101743.69;;;14.17;100.00
25430;BME280;13360;48.152;-1.788;2023-04-25T09:20:12;101733.28;;;14.03;100.00
25430;BME280;13360;48.152;-1.788;2023-04-25T09:22:38;101729.59;;;13.84;100.00
25430;BME280;13360;48.152;-1.788;2023-04-25T09:25:04;101745.22;;;14.04;100.00
25430;BME280;13360;48.152;-1.788;2023-04-25T09:27:32;101732.19;;;14.66;100.00
25430;BME280;13360;48.152;-1.788;2023-04-25T09:29:58;101731.09;;;15.18;100.00
25430;BME280;13360;48.152;-1.788;2023-04-25T09:32:26;101709.34;;;15.53;100.00
25430;BME280;13360;48.152;-1.788;2023-04-25T09:34:52;101666.16;;;15.09;100.00
25430;BME280;13360;48.152;-1.788;2023-04-25T09:37:22;101645.63;;;14.73;100.00
25430;BME280;13360;48.152;-1.788;2023-04-25T09:39:54;101623.38;;;14.35;100.00
25430;BME280;13360;48.152;-1.788;2023-04-25T09:42:23;101634.50;;;14.16;100.00
25430;BME280;13360;48.152;-1.788;2023-04-25T09:44:51;101632.59;;;14.12;100.00
25430;BME280;13360;48.152;-1.788;2023-04-25T09:47:16;101628.63;;;14.18;100.00
25430;BME280;13360;48.152;-1.788;2023-04-25T09:49:43;101604.78;;;13.93;100.00
25430;BME280;13360;48.152;-1.788;2023-04-25T09:52:08;101596.59;;;13.83;100.00
25430;BME280;13360;48.152;-1.788;2023-04-25T09:54:34;101596.59;;;13.83;100.00
25430;BME280;13360;48.152;-1.788;2023-04-25T09:57:03;101617.94;;;13.87;100.00
25430;BME280;13360;48.152;-1.788;2023-04-25T09:59:32;101649.00;;;13.89;100.00
25430;BME280;13360;48.152;-1.788;2023-04-25T10:01:59;101617.88;;;13.68;100.00
25430;BME280;13360;48.152;-1.788;2023-04-25T10:04:25;101603.09;;;13.54;100.00
25430;BME280;13360;48.152;-1.788;2023-04-25T10:06:53;101637.25;;;13.50;100.00
25430;BME280;13360;48.152;-1.788;2023-04-25T10:09:21;101647.19;;;13.56;100.00
25430;BME280;13360;48.152;-1.788;2023-04-25T10:11:49;101655.00;;;13.78;100.00
25430;BME280;13360;48.152;-1.788;2023-04-25T10:14:15;101683.69;;;14.34;100.00
25430;BME280;13360;48.152;-1.788;2023-04-25T10:16:41;101715.72;;;14.88;100.00
25430;BME280;13360;48.152;-1.788;2023-04-25T10:19:07;101686.25;;;15.06;100.00
25430;BME280;13360;48.152;-1.788;2023-04-25T10:21:32;101681.31;;;15.17;100.00
25430;BME280;13360;48.152;-1.788;2023-04-25T10:23:58;101644.41;;;15.11;100.00
25430;BME280;13360;48.152;-1.788;2023-04-25T10:26:24;101603.13;;;14.86;100.00
25430;BME280;13360;48.152;-1.788;2023-04-25T10:28:59;101584.69;;;14.57;100.00
25430;BME280;13360;48.152;-1.788;2023-04-25T10:31:26;101566.59;;;14.41;100.00
25430;BME280;13360;48.152;-1.788;2023-04-25T10:33:51;101552.53;;;14.32;100.00
25430;BME280;13360;48.152;-1.788;2023-04-25T10:36:20;101543.38;;;14.51;100.00
25430;BME280;13360;48.152;-1.788;2023-04-25T10:38:46;101536.22;;;14.63;100.00
25430;BME280;13360;48.152;-1.788;2023-04-25T10:41:12;101530.47;;;14.74;100.00
25430;BME280;13360;48.152;-1.788;2023-04-25T10:43:41;101519.13;;;14.70;100.00
25430;BME280;13360;48.152;-1.788;2023-04-25T10:46:14;101511.53;;;14.76;100.00
25430;BME280;13360;48.152;-1.788;2023-04-25T10:48:43;101540.22;;;15.04;100.00
25430;BME280;13360;48.152;-1.788;2023-04-25T10:51:10;101506.94;;;15.12;100.00
25430;BME280;13360;48.152;-1.788;2023-04-25T10:53:36;101498.16;;;15.19;100.00
25430;BME280;13360;48.152;-1.788;2023-04-25T10:56:17;101464.78;;;15.05;100.00
25430;BME280;13360;48.152;-1.788;2023-04-25T10:58:47;101453.16;;;15.03;100.00
25430;BME280;13360;48.152;-1.788;2023-04-25T11:01:13;101456.13;;;14.93;100.00
25430;BME280;13360;48.152;-1.788;2023-04-25T11:03:42;101444.72;;;14.81;100.00
25430;BME280;13360;48.152;-1.788;2023-04-25T11:06:12;101432.91;;;14.56;100.00
25430;BME280;13360;48.152;-1.788;2023-04-25T11:08:50;101420.88;;;14.47;100.00
25430;BME280;13360;48.152;-1.788;2023-04-25T11:11:16;101406.84;;;14.39;100.00
25430;BME280;13360;48.152;-1.788;2023-04-25T11:13:41;101419.25;;;14.60;100.00
25430;BME280;13360;48.152;-1.788;2023-04-25T11:16:07;101407.09;;;14.70;100.00
25430;BME280;13360;48.152;-1.788;2023-04-25T11:18:32;101401.53;;;14.83;100.00
25430;BME280;13360;48.152;-1.788;2023-04-25T11:20:59;101395.47;;;14.81;100.00
25430;BME280;13360;48.152;-1.788;2023-04-25T11:23:24;101399.69;;;14.79;100.00
25430;BME280;13360;48.152;-1.788;2023-04-25T11:25:49;101405.16;;;14.84;100.00
25430;BME280;13360;48.152;-1.788;2023-04-25T11:28:20;101396.91;;;14.79;100.00
25430;BME280;13360;48.152;-1.788;2023-04-25T11:30:47;101400.59;;;14.74;100.00
25430;BME280;13360;48.152;-1.788;2023-04-25T11:33:13;101416.97;;;14.76;100.00
25430;BME280;13360;48.152;-1.788;2023-04-25T11:35:40;101415.75;;;14.82;100.00
25430;BME280;13360;48.152;-1.788;2023-04-25T11:38:05;101409.78;;;14.88;100.00
25430;BME280;13360;48.152;-1.788;2023-04-25T11:40:30;101408.34;;;14.91;100.00
25430;BME280;13360;48.152;-1.788;2023-04-25T11:42:56;101402.16;;;14.67;100.00
25430;BME280;13360;48.152;-1.788;2023-04-25T11:45:24;101399.03;;;14.54;100.00
25430;BME280;13360;48.152;-1.788;2023-04-25T11:47:50;101408.50;;;14.53;100.00
25430;BME280;13360;48.152;-1.788;2023-04-25T11:50:15;101400.28;;;14.48;100.00
25430;BME280;13360;48.152;-1.788;2023-04-25T11:52:44;101408.31;;;14.50;100.00
25430;BME280;13360;48.152;-1.788;2023-04-25T11:55:17;101407.22;;;14.32;100.00
25430;BME280;13360;48.152;-1.788;2023-04-25T11:57:43;101415.34;;;14.28;100.00
25430;BME280;13360;48.152;-1.788;2023-04-25T12:00:13;101429.06;;;14.39;100.00
25430;BME280;13360;48.152;-1.788;2023-04-25T12:02:45;101406.47;;;14.45;100.00
25430;BME280;13360;48.152;-1.788;2023-04-25T12:05:12;101423.16;;;14.59;100.00
25430;BME280;13360;48.152;-1.788;2023-04-25T12:07:37;101413.69;;;14.60;100.00
25430;BME280;13360;48.152;-1.788;2023-04-25T12:10:07;101399.47;;;14.61;100.00
25430;BME280;13360;48.152;-1.788;2023-04-25T12:12:33;101390.19;;;14.52;100.00
25430;BME280;13360;48.152;-1.788;2023-04-25T12:15:07;101398.97;;;14.27;100.00
25430;BME280;13360;48.152;-1.788;2023-04-25T12:17:33;101392.38;;;14.23;100.00
25430;BME280;13360;48.152;-1.788;2023-04-25T12:19:58;101423.88;;;14.32;100.00
25430;BME280;13360;48.152;-1.788;2023-04-25T12:22:24;101440.94;;;14.44;100.00
25430;BME280;13360;48.152;-1.788;2023-04-25T12:24:49;101413.88;;;14.50;100.00